KSEG/SEG METAR and TAF weather

Enter ICAO airport designator
Station Type Date Time Source
KSEG METAR 2020/09/19 21:53 UTC NOAA

KSEG 192153Z AUTO 36006KT 10SM CLR 17/M03 A3033 RMK AO2 SLP271 T01721028


Station Type Date Time Source
KSEG Decoded METAR 2020/09/19 21:53 UTC NOAA

SELINSGROVE PENN VALLEY AIRPORT , PA, United States (KSEG) 40-49N 076-52W 134M
Sep 19, 2020 - 05:53 PM EDT / 2020.09.19 2153 UTC
Wind: from the N (360 degrees) at 7 MPH (6 KT):0
Visibility: 10 mile(s):0
Sky conditions: clear
Temperature: 63.0 F (17.2 C)
Dew Point: 27.0 F (-2.8 C)
Relative Humidity: 25%
Pressure (altimeter): 30.33 in. Hg (1027 hPa)
ob: KSEG 192153Z AUTO 36006KT 10SM CLR 17/M03 A3033 RMK AO2 SLP271 T01721028
cycle: 22

Station Type Date Time Source
KSEG TAF UTC NOAA

Error!

Example: see airport list